Ust'- Barguzin, Russia
Current Conditions -  °F | °C
As of 8:30 PM on Thursday 30 Oct 2014 (Local Time) from UIUU Reporting Station
Clear Clear  
Wind Chill:   Ceiling: Unl
Heat Index: 18°   Visibility: 6mi
Dew Point:   Wind: 9mph
Humidity: 68%   Direction: 260°W
Pressure: 30.09"   Gusts: NA
Location:  53.45°N, 108.98°E
Report Text: UIUU 301230Z 26004MPS 9999 SKC M08/M13 Q1019 NOSIG RMKQFE720/0960 26CLRD60
Loading
Personal Weather Stations






























Interactive Weather Map
Tropical Storm Tracking
New forecast layout! Learn more

10-Day Weather Forecast

Advertisements
Track Severe Weather on mobile